createdAt,value
2023-04-26T00:00:34.725Z,97.40
2023-04-26T00:03:04.345Z,97.40
2023-04-26T00:05:33.140Z,97.40
2023-04-26T00:08:04.190Z,97.40
2023-04-26T00:10:32.981Z,97.40
2023-04-26T00:13:01.931Z,97.40
2023-04-26T00:15:32.128Z,97.40
2023-04-26T00:18:00.795Z,97.40
2023-04-26T00:20:30.390Z,97.40
2023-04-26T00:22:59.475Z,97.40
2023-04-26T00:25:30.119Z,97.40
2023-04-26T00:28:00.229Z,97.40
2023-04-26T00:30:32.437Z,97.40
2023-04-26T00:33:01.748Z,97.40
2023-04-26T00:35:31.392Z,97.40
2023-04-26T00:38:00.520Z,97.40
2023-04-26T00:40:31.939Z,97.40
2023-04-26T00:43:01.040Z,97.40
2023-04-26T00:45:32.539Z,97.40
2023-04-26T00:48:05.077Z,97.40
2023-04-26T00:50:35.714Z,97.40
2023-04-26T00:53:06.722Z,97.40
2023-04-26T00:55:41.105Z,97.40
2023-04-26T00:58:12.550Z,97.40
2023-04-26T01:00:42.210Z,97.40
2023-04-26T01:03:11.748Z,97.40
2023-04-26T01:05:41.410Z,97.40
2023-04-26T01:08:10.630Z,97.40
2023-04-26T01:10:42.146Z,97.40
2023-04-26T01:13:11.427Z,97.40
2023-04-26T01:15:46.509Z,97.40
2023-04-26T01:18:16.432Z,97.40
2023-04-26T01:20:47.138Z,97.40
2023-04-26T01:23:21.179Z,97.40
2023-04-26T01:25:51.055Z,97.40
2023-04-26T01:28:21.877Z,97.40
2023-04-26T01:30:51.208Z,97.40
2023-04-26T01:33:34.044Z,97.40
2023-04-26T01:36:02.532Z,97.40
2023-04-26T01:38:32.905Z,97.40
2023-04-26T01:43:47.363Z,97.40
2023-04-26T01:46:17.052Z,97.40
2023-04-26T01:48:46.503Z,97.40
2023-04-26T01:51:15.369Z,97.40
2023-04-26T01:53:46.028Z,97.40
2023-04-26T01:56:15.163Z,97.40
2023-04-26T01:58:43.990Z,97.40
2023-04-26T02:01:12.418Z,97.40
2023-04-26T02:03:41.247Z,97.40
2023-04-26T02:06:10.252Z,97.40
2023-04-26T02:08:41.024Z,97.40
2023-04-26T02:11:11.866Z,97.40
2023-04-26T02:13:41.640Z,97.40
2023-04-26T02:18:55.616Z,97.40
2023-04-26T02:21:24.118Z,97.40
2023-04-26T02:23:53.651Z,97.40
2023-04-26T02:26:24.629Z,97.40
2023-04-26T02:28:53.236Z,97.40
2023-04-26T02:31:23.301Z,97.40
2023-04-26T02:33:53.234Z,97.40
2023-04-26T02:36:28.423Z,97.40
2023-04-26T02:39:05.508Z,97.40
2023-04-26T02:41:38.431Z,97.40
2023-04-26T02:44:07.762Z,97.40
2023-04-26T02:46:38.499Z,97.40
2023-04-26T02:49:10.064Z,97.40
2023-04-26T02:51:40.220Z,97.40
2023-04-26T02:54:09.504Z,97.40
2023-04-26T02:56:41.086Z,97.40
2023-04-26T02:59:09.912Z,97.40
2023-04-26T03:01:39.136Z,97.40
2023-04-26T03:04:09.160Z,97.40
2023-04-26T03:06:39.843Z,97.40
2023-04-26T03:09:09.608Z,97.40
2023-04-26T03:11:40.620Z,97.40
2023-04-26T03:14:10.757Z,97.40
2023-04-26T03:16:44.105Z,97.40
2023-04-26T03:19:13.291Z,97.40
2023-04-26T03:21:43.656Z,97.40
2023-04-26T03:24:13.092Z,97.40
2023-04-26T03:26:43.924Z,97.40
2023-04-26T03:29:16.077Z,97.40
2023-04-26T03:31:46.096Z,97.40
2023-04-26T03:34:18.676Z,97.40
2023-04-26T03:36:48.948Z,97.40
2023-04-26T03:39:17.875Z,97.40
2023-04-26T03:41:47.729Z,97.40
2023-04-26T03:44:16.599Z,97.40
2023-04-26T03:46:45.009Z,97.40
2023-04-26T03:49:13.488Z,97.40
2023-04-26T03:51:42.192Z,97.40
2023-04-26T03:54:11.163Z,97.40
2023-04-26T03:56:40.247Z,97.40
2023-04-26T03:59:10.531Z,97.40
2023-04-26T04:01:40.096Z,97.40
2023-04-26T04:04:09.967Z,97.40
2023-04-26T04:06:39.358Z,97.40
2023-04-26T04:09:07.697Z,97.40
2023-04-26T04:11:36.752Z,97.40
2023-04-26T04:14:10.224Z,97.40
2023-04-26T04:16:40.683Z,97.40
2023-04-26T04:19:09.864Z,97.40
2023-04-26T04:21:40.314Z,97.40
2023-04-26T04:24:09.983Z,97.40
2023-04-26T04:26:39.122Z,97.40
2023-04-26T04:29:09.560Z,97.40
2023-04-26T04:31:41.719Z,97.40
2023-04-26T04:34:11.280Z,97.40
2023-04-26T04:36:43.538Z,97.40
2023-04-26T04:39:16.805Z,97.40
2023-04-26T04:41:49.770Z,97.40
2023-04-26T04:44:24.541Z,97.40
2023-04-26T04:46:58.620Z,97.40
2023-04-26T04:49:28.124Z,97.40
2023-04-26T04:51:58.003Z,97.40
2023-04-26T04:54:28.921Z,97.40
2023-04-26T04:57:01.904Z,97.40
2023-04-26T04:59:32.287Z,97.40
2023-04-26T05:02:03.214Z,97.40
2023-04-26T05:04:36.481Z,97.40
2023-04-26T05:07:09.641Z,97.40
2023-04-26T05:09:40.334Z,97.40
2023-04-26T05:12:08.885Z,97.40
2023-04-26T05:14:37.751Z,97.40
2023-04-26T05:17:08.321Z,97.40
2023-04-26T05:19:38.815Z,97.40
2023-04-26T05:22:08.431Z,97.40
2023-04-26T05:24:39.569Z,97.40
2023-04-26T05:27:08.729Z,97.40
2023-04-26T05:29:51.251Z,97.40
2023-04-26T05:32:34.959Z,97.40
2023-04-26T05:35:17.246Z,97.40
2023-04-26T05:37:47.062Z,97.40
2023-04-26T05:40:18.887Z,97.40
2023-04-26T05:42:53.215Z,97.40
2023-04-26T05:45:27.165Z,97.40
2023-04-26T05:47:57.786Z,97.40
2023-04-26T05:50:27.591Z,97.40
2023-04-26T05:52:56.100Z,97.40
2023-04-26T05:55:24.771Z,97.40
2023-04-26T05:57:53.686Z,97.40
2023-04-26T06:00:26.306Z,97.40
2023-04-26T06:03:01.608Z,97.40
2023-04-26T06:05:31.098Z,97.40
2023-04-26T06:08:03.023Z,97.40
2023-04-26T06:10:32.309Z,97.40
2023-04-26T06:13:02.174Z,97.40
2023-04-26T06:15:35.401Z,97.40
2023-04-26T06:18:11.149Z,97.40
2023-04-26T06:20:39.861Z,97.40
2023-04-26T06:23:09.287Z,97.40
2023-04-26T06:25:40.561Z,97.40
2023-04-26T06:28:11.636Z,97.40
2023-04-26T06:30:41.715Z,97.40
2023-04-26T06:33:13.857Z,97.40
2023-04-26T06:35:47.408Z,97.40
2023-04-26T06:38:17.537Z,97.40
2023-04-26T06:40:48.527Z,97.40
2023-04-26T06:43:22.098Z,97.40
2023-04-26T06:46:09.023Z,97.40
2023-04-26T06:48:39.235Z,97.40
2023-04-26T06:51:11.898Z,97.40
2023-04-26T06:53:41.875Z,97.40
2023-04-26T06:56:11.629Z,97.40
2023-04-26T06:58:47.832Z,97.40
2023-04-26T07:01:18.704Z,97.40
2023-04-26T07:03:53.039Z,97.40
2023-04-26T07:06:22.908Z,97.40
2023-04-26T07:09:06.184Z,97.40
2023-04-26T07:11:35.445Z,97.40
2023-04-26T07:14:04.741Z,97.40
2023-04-26T07:16:35.847Z,97.40
2023-04-26T07:19:08.078Z,97.40
2023-04-26T07:21:38.544Z,97.40
2023-04-26T07:24:08.306Z,97.40
2023-04-26T07:26:38.336Z,97.40
2023-04-26T07:29:08.352Z,97.40
2023-04-26T07:31:38.297Z,97.40
2023-04-26T07:34:09.289Z,97.40
2023-04-26T07:36:38.424Z,97.40
2023-04-26T07:39:14.985Z,97.40
2023-04-26T07:41:44.344Z,97.40
2023-04-26T07:44:14.719Z,97.40
2023-04-26T07:46:44.044Z,97.40
2023-04-26T07:49:14.969Z,96.00
2023-04-26T07:51:49.142Z,97.40
2023-04-26T07:54:18.164Z,94.10
2023-04-26T07:56:47.660Z,94.20
2023-04-26T07:59:16.730Z,90.60
2023-04-26T08:01:45.439Z,90.20
2023-04-26T08:04:17.546Z,90.80
2023-04-26T08:06:50.789Z,92.30
2023-04-26T08:09:19.260Z,90.70
2023-04-26T08:11:47.741Z,91.80
2023-04-26T08:14:16.624Z,88.20
2023-04-26T08:16:45.837Z,87.70
2023-04-26T08:19:16.458Z,82.50
2023-04-26T08:21:45.381Z,76.70
2023-04-26T08:24:14.446Z,78.90
2023-04-26T08:26:45.899Z,70.00
2023-04-26T08:29:15.167Z,73.70
2023-04-26T08:31:44.355Z,71.10
2023-04-26T08:34:13.888Z,67.20
2023-04-26T08:36:46.581Z,66.30
2023-04-26T08:39:15.256Z,63.80
2023-04-26T08:41:52.181Z,62.20
2023-04-26T08:44:30.337Z,60.10
2023-04-26T08:47:17.423Z,58.60
2023-04-26T08:49:48.105Z,54.50
2023-04-26T08:52:25.359Z,54.00
2023-04-26T08:54:58.873Z,54.00
2023-04-26T08:57:28.759Z,46.80
2023-04-26T08:59:59.576Z,49.40
2023-04-26T09:02:30.657Z,50.70
2023-04-26T09:05:00.338Z,53.70
2023-04-26T09:07:38.050Z,50.20
2023-04-26T09:10:09.086Z,49.00
2023-04-26T09:12:44.773Z,48.10
2023-04-26T09:15:17.498Z,49.40
2023-04-26T09:17:47.115Z,45.80
2023-04-26T09:20:32.096Z,44.30
2023-04-26T09:23:09.854Z,45.60
2023-04-26T09:25:40.345Z,44.30
2023-04-26T09:28:23.546Z,42.60
2023-04-26T09:30:54.401Z,40.60
2023-04-26T09:33:23.671Z,43.00
2023-04-26T09:35:53.049Z,40.60
2023-04-26T09:38:25.575Z,43.50
2023-04-26T09:41:03.344Z,39.40
2023-04-26T09:43:40.060Z,39.40
2023-04-26T09:46:11.509Z,44.00
2023-04-26T09:48:45.552Z,41.10
2023-04-26T09:51:15.175Z,40.50
2023-04-26T09:53:52.506Z,41.20
2023-04-26T09:56:23.137Z,43.50
2023-04-26T09:59:03.946Z,42.00
2023-04-26T10:01:33.520Z,40.90
2023-04-26T10:04:09.651Z,44.90
2023-04-26T10:06:56.425Z,43.30
2023-04-26T10:09:40.897Z,43.60
2023-04-26T10:15:20.271Z,40.60
2023-04-26T10:17:52.144Z,42.00
2023-04-26T10:20:29.387Z,43.50
2023-04-26T10:23:11.760Z,48.50
2023-04-26T10:25:44.738Z,48.10
2023-04-26T10:28:14.900Z,47.30
2023-04-26T10:31:07.579Z,46.80
2023-04-26T10:33:41.580Z,47.20
2023-04-26T10:36:14.252Z,45.60
2023-04-26T10:39:21.854Z,47.30
2023-04-26T10:41:54.584Z,47.60
2023-04-26T10:44:45.885Z,46.80
2023-04-26T10:47:32.687Z,47.20
2023-04-26T10:50:07.731Z,44.60
2023-04-26T10:53:07.933Z,43.00
2023-04-26T10:55:45.377Z,40.60
2023-04-26T10:58:34.869Z,39.70
2023-04-26T11:04:09.826Z,41.50
2023-04-26T11:06:52.265Z,40.60
2023-04-26T11:09:41.118Z,38.00
2023-04-26T11:12:14.831Z,38.20
2023-04-26T11:14:46.336Z,32.50
2023-04-26T11:17:16.332Z,34.40
2023-04-26T11:19:49.504Z,35.30
2023-04-26T11:22:23.569Z,33.40
2023-04-26T11:24:52.307Z,36.00
2023-04-26T11:27:22.163Z,35.90
2023-04-26T11:29:56.906Z,35.60
2023-04-26T11:32:28.911Z,36.50
2023-04-26T11:35:04.336Z,40.00
2023-04-26T11:37:34.330Z,38.80
2023-04-26T11:40:05.449Z,39.80
2023-04-26T11:42:34.034Z,41.10
2023-04-26T11:45:07.038Z,39.70
2023-04-26T11:47:36.932Z,42.30
2023-04-26T11:50:10.733Z,42.40
2023-04-26T11:52:42.318Z,43.80
2023-04-26T11:55:13.670Z,42.90
2023-04-26T11:57:42.739Z,42.00
2023-04-26T12:00:16.132Z,42.40
2023-04-26T12:02:48.959Z,41.40
2023-04-26T12:05:29.182Z,43.60
2023-04-26T12:08:01.187Z,40.90
2023-04-26T12:10:35.153Z,43.30
2023-04-26T12:13:05.554Z,42.40
2023-04-26T12:15:36.271Z,40.30
2023-04-26T12:18:12.525Z,39.80
2023-04-26T12:20:43.418Z,40.30
2023-04-26T12:23:18.941Z,39.70
2023-04-26T12:25:56.124Z,38.30
2023-04-26T12:28:27.286Z,36.00
2023-04-26T12:30:59.051Z,37.70
2023-04-26T12:33:28.023Z,39.40
2023-04-26T12:35:57.732Z,36.00
2023-04-26T12:38:29.764Z,37.60
2023-04-26T12:41:01.817Z,37.30
2023-04-26T12:43:32.020Z,38.60
2023-04-26T12:46:02.465Z,36.80
2023-04-26T12:48:30.964Z,35.40
2023-04-26T12:50:59.984Z,37.60
2023-04-26T12:53:28.419Z,36.60
2023-04-26T12:55:56.870Z,35.90
2023-04-26T12:58:25.841Z,34.80
2023-04-26T13:00:56.598Z,32.80
2023-04-26T13:03:27.334Z,34.50
2023-04-26T13:05:56.925Z,37.40
2023-04-26T13:08:27.165Z,35.70
2023-04-26T13:10:58.657Z,37.10
2023-04-26T13:13:42.249Z,37.10
2023-04-26T13:16:13.573Z,35.40
2023-04-26T13:18:47.691Z,38.20
2023-04-26T13:21:20.976Z,38.30
2023-04-26T13:24:03.336Z,38.80
2023-04-26T13:26:32.101Z,36.90
2023-04-26T13:29:00.612Z,35.00
2023-04-26T13:31:29.147Z,36.60
2023-04-26T13:33:59.384Z,37.90
2023-04-26T13:36:28.002Z,36.60
2023-04-26T13:38:56.875Z,38.90
2023-04-26T13:41:33.661Z,38.60
2023-04-26T13:44:03.077Z,37.90
2023-04-26T13:46:31.930Z,35.90
2023-04-26T13:49:03.552Z,34.50
2023-04-26T13:51:34.926Z,33.70
2023-04-26T13:54:04.374Z,33.10
2023-04-26T13:56:34.701Z,32.80
2023-04-26T13:59:05.535Z,33.90
2023-04-26T14:01:39.812Z,36.00
2023-04-26T14:04:13.822Z,35.70
2023-04-26T14:06:42.863Z,35.90
2023-04-26T14:09:13.409Z,37.40
2023-04-26T14:11:47.245Z,37.10
2023-04-26T14:14:21.060Z,38.60
2023-04-26T14:16:51.025Z,37.90
2023-04-26T14:19:23.053Z,37.30
2023-04-26T14:21:53.393Z,37.90
2023-04-26T14:24:24.549Z,38.50
2023-04-26T14:26:55.359Z,36.00
2023-04-26T14:29:26.678Z,36.90
2023-04-26T14:31:59.304Z,34.80
2023-04-26T14:34:30.163Z,36.60
2023-04-26T14:37:01.608Z,35.90
2023-04-26T14:39:30.112Z,36.80
2023-04-26T14:41:59.329Z,35.60
2023-04-26T14:44:32.333Z,35.90
2023-04-26T14:47:00.990Z,36.50
2023-04-26T14:49:31.547Z,38.00
2023-04-26T14:52:01.632Z,38.60
2023-04-26T14:54:31.178Z,39.40
2023-04-26T14:56:59.423Z,40.80
2023-04-26T14:59:29.872Z,42.90
2023-04-26T15:01:58.404Z,42.10
2023-04-26T15:04:32.912Z,41.80
2023-04-26T15:07:04.064Z,40.10
2023-04-26T15:09:33.633Z,42.40
2023-04-26T15:12:05.013Z,43.00
2023-04-26T15:14:35.777Z,48.20
2023-04-26T15:17:06.444Z,46.10
2023-04-26T15:19:37.223Z,44.70
2023-04-26T15:22:07.523Z,45.30
2023-04-26T15:24:38.167Z,47.00
2023-04-26T15:27:07.485Z,49.90
2023-04-26T15:29:39.790Z,50.30
2023-04-26T15:32:10.092Z,52.00
2023-04-26T15:34:45.556Z,50.30
2023-04-26T15:37:16.310Z,49.40
2023-04-26T15:39:51.293Z,50.30
2023-04-26T15:42:25.874Z,49.10
2023-04-26T15:44:57.715Z,50.50
2023-04-26T15:47:28.670Z,51.30
2023-04-26T15:50:04.309Z,51.90
2023-04-26T15:52:39.512Z,53.20
2023-04-26T15:55:09.804Z,54.50
2023-04-26T15:57:40.623Z,54.20
2023-04-26T16:00:14.289Z,53.10
2023-04-26T16:02:45.053Z,53.50
2023-04-26T16:05:14.797Z,54.90
2023-04-26T16:07:45.192Z,56.10
2023-04-26T16:10:16.731Z,55.20
2023-04-26T16:12:45.583Z,53.70
2023-04-26T16:15:14.521Z,54.00
2023-04-26T16:17:43.036Z,54.00
2023-04-26T16:20:12.254Z,54.60
2023-04-26T16:22:40.728Z,56.70
2023-04-26T16:25:13.130Z,56.30
2023-04-26T16:27:43.757Z,56.70
2023-04-26T16:30:15.210Z,60.30
2023-04-26T16:32:43.847Z,62.20
2023-04-26T16:35:17.699Z,60.30
2023-04-26T16:37:46.612Z,61.20
2023-04-26T16:40:17.652Z,62.90
2023-04-26T16:42:46.263Z,61.00
2023-04-26T16:45:16.583Z,64.20
2023-04-26T16:47:46.202Z,60.90
2023-04-26T16:50:16.379Z,62.00
2023-04-26T16:52:46.553Z,62.30
2023-04-26T16:55:25.159Z,59.50
2023-04-26T16:57:55.174Z,60.90
2023-04-26T17:00:25.619Z,61.00
2023-04-26T17:02:54.750Z,62.90
2023-04-26T17:05:29.833Z,63.30
2023-04-26T17:07:59.803Z,67.20
2023-04-26T17:10:32.277Z,64.80
2023-04-26T17:13:04.501Z,65.50
2023-04-26T17:15:34.742Z,65.00
2023-04-26T17:18:07.737Z,66.60
2023-04-26T17:20:37.250Z,68.50
2023-04-26T17:23:08.898Z,67.90
2023-04-26T17:25:41.387Z,67.90
2023-04-26T17:28:10.540Z,68.90
2023-04-26T17:30:43.550Z,69.60
2023-04-26T17:33:12.786Z,69.80
2023-04-26T17:35:47.410Z,68.90
2023-04-26T17:38:15.998Z,68.70
2023-04-26T17:40:46.761Z,67.40
2023-04-26T17:43:15.109Z,67.20
2023-04-26T17:45:46.591Z,67.70
2023-04-26T17:48:14.892Z,68.30
2023-04-26T17:50:46.659Z,68.90
2023-04-26T17:53:16.048Z,69.40
2023-04-26T17:55:56.220Z,69.80
2023-04-26T17:58:30.000Z,70.20
2023-04-26T18:00:59.817Z,70.90
2023-04-26T18:03:31.889Z,72.80
2023-04-26T18:06:10.744Z,74.60
2023-04-26T18:08:42.817Z,78.40
2023-04-26T18:11:20.901Z,77.10
2023-04-26T18:13:51.819Z,77.30
2023-04-26T18:16:20.829Z,77.80
2023-04-26T18:18:53.829Z,76.50
2023-04-26T18:21:22.965Z,75.60
2023-04-26T18:23:55.974Z,74.10
2023-04-26T18:26:26.986Z,75.60
2023-04-26T18:28:57.145Z,76.90
2023-04-26T18:31:26.411Z,77.40
2023-04-26T18:34:01.143Z,78.60
2023-04-26T18:36:33.664Z,79.50
2023-04-26T18:39:04.477Z,79.70
2023-04-26T18:41:36.205Z,81.00
2023-04-26T18:44:10.741Z,81.20
2023-04-26T18:46:39.703Z,79.90
2023-04-26T18:49:13.195Z,79.30
2023-04-26T18:51:47.542Z,80.20
2023-04-26T18:54:20.589Z,81.70
2023-04-26T18:56:54.516Z,80.80
2023-04-26T18:59:28.573Z,80.80
2023-04-26T19:02:04.843Z,82.10
2023-04-26T19:04:36.580Z,81.20
2023-04-26T19:07:09.962Z,80.40
2023-04-26T19:09:52.899Z,81.00
2023-04-26T19:12:33.607Z,81.20
2023-04-26T19:15:11.344Z,80.00
2023-04-26T19:17:42.854Z,79.50
2023-04-26T19:20:15.091Z,80.20
2023-04-26T19:22:48.157Z,82.30
2023-04-26T19:25:26.513Z,83.20
2023-04-26T19:27:57.945Z,83.00
2023-04-26T19:30:28.377Z,83.60
2023-04-26T19:33:02.394Z,85.10
2023-04-26T19:35:36.378Z,85.60
2023-04-26T19:38:06.907Z,87.30
2023-04-26T19:40:40.006Z,88.60
2023-04-26T19:43:15.374Z,88.20
2023-04-26T19:45:44.332Z,88.40
2023-04-26T19:48:20.482Z,89.00
2023-04-26T19:50:51.041Z,88.80
2023-04-26T19:53:33.416Z,90.10
2023-04-26T19:56:05.764Z,90.60
2023-04-26T19:58:52.788Z,90.50
2023-04-26T20:01:23.545Z,91.90
2023-04-26T20:03:54.731Z,93.20
2023-04-26T20:06:27.745Z,94.60
2023-04-26T20:09:08.060Z,94.70
2023-04-26T20:11:40.175Z,94.50
2023-04-26T20:14:17.365Z,95.00
2023-04-26T20:16:48.590Z,95.60
2023-04-26T20:19:22.170Z,95.20
2023-04-26T20:21:57.420Z,95.40
2023-04-26T20:24:32.305Z,95.90
2023-04-26T20:27:05.593Z,95.50
2023-04-26T20:29:37.318Z,95.70
2023-04-26T20:32:15.222Z,95.50
2023-04-26T20:34:45.225Z,96.20
2023-04-26T20:37:17.086Z,96.40
2023-04-26T20:39:47.902Z,96.80
2023-04-26T20:42:17.941Z,97.00
2023-04-26T20:44:49.548Z,97.20
2023-04-26T20:47:18.567Z,97.20
2023-04-26T20:49:47.017Z,97.40
2023-04-26T20:52:17.384Z,97.40
2023-04-26T20:54:47.125Z,97.40
2023-04-26T20:57:16.104Z,97.40
2023-04-26T20:59:46.751Z,97.40
2023-04-26T21:02:17.761Z,97.40
2023-04-26T21:04:50.120Z,97.40
2023-04-26T21:07:20.482Z,97.40
2023-04-26T21:10:00.527Z,97.40
2023-04-26T21:12:29.506Z,97.40
2023-04-26T21:15:10.124Z,97.40
2023-04-26T21:17:47.143Z,97.40
2023-04-26T21:20:29.826Z,97.40
2023-04-26T21:23:01.672Z,97.40
2023-04-26T21:25:46.206Z,97.40
2023-04-26T21:28:15.839Z,97.40
2023-04-26T21:30:47.254Z,97.40
2023-04-26T21:33:20.051Z,97.40
2023-04-26T21:35:51.036Z,97.40
2023-04-26T21:41:21.005Z,97.40
2023-04-26T21:43:51.698Z,97.40
2023-04-26T21:46:25.612Z,97.40
2023-04-26T21:49:01.249Z,97.40
2023-04-26T21:51:34.260Z,97.40
2023-04-26T21:54:13.440Z,97.40
2023-04-26T21:59:31.760Z,97.40
2023-04-26T22:02:02.310Z,97.40
2023-04-26T22:05:05.152Z,97.40
2023-04-26T22:07:44.850Z,97.40
2023-04-26T22:10:19.343Z,97.40
2023-04-26T22:12:51.437Z,97.40
2023-04-26T22:18:20.484Z,97.40
2023-04-26T22:24:00.031Z,97.40
2023-04-26T22:26:32.670Z,97.40
2023-04-26T22:29:08.290Z,97.40
2023-04-26T22:31:42.097Z,97.40
2023-04-26T22:34:27.850Z,97.40
2023-04-26T22:37:19.589Z,97.40
2023-04-26T22:39:50.167Z,97.40
2023-04-26T22:45:18.362Z,97.40
2023-04-26T22:48:01.871Z,97.40
2023-04-26T22:50:35.918Z,97.40
2023-04-26T22:53:21.569Z,97.40
2023-04-26T22:55:55.907Z,97.40
2023-04-26T22:58:38.886Z,97.40
2023-04-26T23:01:07.713Z,97.40
2023-04-26T23:03:40.653Z,97.40
2023-04-26T23:06:12.561Z,97.40
2023-04-26T23:09:17.227Z,97.40
2023-04-26T23:11:49.517Z,97.40
2023-04-26T23:17:31.088Z,97.40
2023-04-26T23:23:03.227Z,97.40
2023-04-26T23:25:43.110Z,97.40
2023-04-26T23:28:18.277Z,97.40
2023-04-26T23:30:59.241Z,97.40
2023-04-26T23:33:59.517Z,97.40
2023-04-26T23:42:31.468Z,97.40
2023-04-26T23:47:58.348Z,97.40
2023-04-26T23:50:30.433Z,97.40
2023-04-26T23:53:03.694Z,97.40
2023-04-26T23:55:56.626Z,97.40
2023-04-26T23:59:26.677Z,97.40
